Startpagina
METAR-TAF:

METAR-TAF

Vliegvelden :

Bluefields, Nicaragua

breedte: 12-00N, lengte: 083-46W, hoogte: 5 m

Actueel weer

Dit bericht is 3 uur en het 1 minuten geleden gemaakt, om 03:26 UTC
Wind 6 kt uit het zuidzuidoosten
Temperatuur
Druk
Zicht 10 km of meer
Weinig wolken op 2200 ft
Verspreide wolken op 9000 ft

METAR: MNBL 190326Z 15006KT 9999 FEW022 SCT090

Tijdstip: 00:27 (06:27 UTC)

Verwachting

Dit bericht is 9 uur en het 27 minuten geleden gemaakt, om 21:00 UTC
Verwachting geldig van 19 om 00 UTC tot 19 om 24 UTC
Wind 6 kt uit het oosten
Zicht: 4000 m
Gebroken wolken op 1600 ft, Stapelwolken.
Verspreide wolken op 6000 ft
Tijdelijke
van 19 om 09 UTC tot 19 om 15 UTC
Wind 4 kt uit variabele richting
Zicht 10 km of meer
Verspreide wolken op 1800 ft
Van 19 om 2100 UTC
Wind 8 kt uit het oostnoordoosten
Gebroken wolken op 1600 ft
Verspreide wolken op 7000 ft

TAF: MNBL 182100Z 1900/1924 08006KT 4000 -DZ/TSRA BKN016TCU SCT060 TEMPO 1909/1915 VRB04KT 9999 SCT018 FM192100 07008KT 60000 VCRA/DZ BKN016 SCT070

Waarnemingen en weersverwachtingen van meer dan 4000 vliegvelden (METAR en TAF).

De beschikbare stations zijn de gele en rode punten op de kaart.

Ga met uw muis naar het station om de naam te zien.

Klik dan om waarnemingen en weersverwachtingen te zien.

kaart wijzigen: klik op de groene knoppen met een zwart kruis om in te zoomen, op de groene knop met een streepje om uit te zoomen of op de groene pijlen voor aangrenzende kaarten.


METAR-TAF: